Aeroporto :
LOGIN :

Iscrizione | Disclaimer

   EN    FR    IT 

 










Sommario :    VFR   VFR Marginale   IFR   IFR Intensivo   IFR Molto Intensivo
Visibilità : 
Base nubi : 
>= 8 km
>= 3000ft
5 / 8 km
1000 / 3000 ft
1500m / 5 km
500 / 1000 ft
800 / 1500m
200 / 500 ft
< 800m
< 200 ft
Simboli :   Temporali  Nebbia  Neve Forte  Precipitazioni Forti  Vento > 20 kt
SIGMETs :   Varie  Temporali  Ghiacco  Turbolenza  Onda orograficha  Ceneri Vulcaniche






- Altitudine del aeroporto : 44 ft
- Codice IATA : SOU


EGHI - Southampton

ULTIMO METAR :
  • 272150Z 22008KT CAVOK 07/04 Q0993

METARs OBSOLETI :
  • 272120Z 21008KT CAVOK 07/04 Q0993
  • 272050Z 21010KT CAVOK 07/04 Q0993
  • 272020Z 22009KT 9999 -SHRA SCT023 08/05 Q0994
  • 271950Z VRB03KT 9999 FEW022 07/06 Q0994
  • 271920Z 21004KT 9999 FEW021 07/05 Q0994

TAF TAF EGHI
Valido dal 27 a 21 ore il 27 a 23 ore UTC


272001Z 2721/2723 23008KT 9999 SCT022
TEMPO 2721/2723 25015G25KT 7000 SHRA BKN014
PROB30
TEMPO 2721/2723 3000 +TSGS
ATIS : +44 23 8062 7103



MetMap, La meteo Aeronautica in un colpo d'occhio ! - Copyright ORBIFLY Dicembre 2007 - Disclaimer

ORBIFLY MET'MAP TEAM :

Programmazione e sviluppo : Alexandra Zaïnal
Concezione : Baudouin d'Aumeries
Aiuto per la programmazione : Marc-Olivier Méhu
Supporto tecnico e logistico : Manuel Goepfert
Aiuto per la traduzione : Arnaldo La Scala

Contatto : metmap@orbifly.com




FONTI E CREDITI :

   NOAA